sensor_id;sensor_type;location;lat;lon;timestamp;temperature;humidity
18506;DHT22;9382;53.242;10.438;2022-09-28T00:01:39;8.20;99.90
18506;DHT22;9382;53.242;10.438;2022-09-28T00:04:07;8.30;99.90
18506;DHT22;9382;53.242;10.438;2022-09-28T00:06:33;8.30;99.90
18506;DHT22;9382;53.242;10.438;2022-09-28T00:09:00;8.20;99.90
18506;DHT22;9382;53.242;10.438;2022-09-28T00:11:27;8.30;99.90
18506;DHT22;9382;53.242;10.438;2022-09-28T00:13:56;8.30;99.90
18506;DHT22;9382;53.242;10.438;2022-09-28T00:16:26;8.40;99.90
18506;DHT22;9382;53.242;10.438;2022-09-28T00:18:53;8.30;99.90
18506;DHT22;9382;53.242;10.438;2022-09-28T00:21:24;8.30;99.90
18506;DHT22;9382;53.242;10.438;2022-09-28T00:23:51;8.30;99.90
18506;DHT22;9382;53.242;10.438;2022-09-28T00:26:37;8.20;99.90
18506;DHT22;9382;53.242;10.438;2022-09-28T00:29:05;8.10;99.90
18506;DHT22;9382;53.242;10.438;2022-09-28T00:31:33;8.10;99.90
18506;DHT22;9382;53.242;10.438;2022-09-28T00:34:01;8.10;99.90
18506;DHT22;9382;53.242;10.438;2022-09-28T00:36:31;8.00;99.90
18506;DHT22;9382;53.242;10.438;2022-09-28T00:39:02;7.90;99.90
18506;DHT22;9382;53.242;10.438;2022-09-28T00:41:29;7.90;99.90
18506;DHT22;9382;53.242;10.438;2022-09-28T00:46:58;7.70;99.90
18506;DHT22;9382;53.242;10.438;2022-09-28T00:49:32;7.60;99.90
18506;DHT22;9382;53.242;10.438;2022-09-28T00:52:02;7.50;99.90
18506;DHT22;9382;53.242;10.438;2022-09-28T00:54:31;7.40;99.90
18506;DHT22;9382;53.242;10.438;2022-09-28T00:56:58;7.40;99.90
18506;DHT22;9382;53.242;10.438;2022-09-28T00:59:25;7.50;99.90
18506;DHT22;9382;53.242;10.438;2022-09-28T01:01:52;7.40;99.90
18506;DHT22;9382;53.242;10.438;2022-09-28T01:04:19;7.40;99.90
18506;DHT22;9382;53.242;10.438;2022-09-28T01:06:47;7.40;99.90
18506;DHT22;9382;53.242;10.438;2022-09-28T01:09:17;7.50;99.90
18506;DHT22;9382;53.242;10.438;2022-09-28T01:11:45;7.50;99.90
18506;DHT22;9382;53.242;10.438;2022-09-28T01:14:14;7.50;99.90
18506;DHT22;9382;53.242;10.438;2022-09-28T01:16:45;7.50;99.90
18506;DHT22;9382;53.242;10.438;2022-09-28T01:19:32;7.40;99.90
18506;DHT22;9382;53.242;10.438;2022-09-28T01:22:15;7.40;99.90
18506;DHT22;9382;53.242;10.438;2022-09-28T01:24:46;7.40;99.90
18506;DHT22;9382;53.242;10.438;2022-09-28T01:27:19;7.50;99.90
18506;DHT22;9382;53.242;10.438;2022-09-28T01:29:54;7.40;99.90
18506;DHT22;9382;53.242;10.438;2022-09-28T01:32:30;7.60;99.90
18506;DHT22;9382;53.242;10.438;2022-09-28T01:35:03;7.60;99.90
18506;DHT22;9382;53.242;10.438;2022-09-28T01:37:36;7.60;99.90
18506;DHT22;9382;53.242;10.438;2022-09-28T01:40:06;7.60;99.90
18506;DHT22;9382;53.242;10.438;2022-09-28T01:42:37;7.60;99.90
18506;DHT22;9382;53.242;10.438;2022-09-28T01:45:08;7.70;99.90
18506;DHT22;9382;53.242;10.438;2022-09-28T01:47:38;7.70;99.90
18506;DHT22;9382;53.242;10.438;2022-09-28T01:50:10;7.70;99.90
18506;DHT22;9382;53.242;10.438;2022-09-28T01:52:43;7.70;99.90
18506;DHT22;9382;53.242;10.438;2022-09-28T01:55:13;7.70;99.90
18506;DHT22;9382;53.242;10.438;2022-09-28T01:57:47;7.70;99.90
18506;DHT22;9382;53.242;10.438;2022-09-28T02:00:17;7.70;99.90
18506;DHT22;9382;53.242;10.438;2022-09-28T02:02:47;7.80;99.90
18506;DHT22;9382;53.242;10.438;2022-09-28T02:05:20;7.80;99.90
18506;DHT22;9382;53.242;10.438;2022-09-28T02:07:54;7.80;99.90
18506;DHT22;9382;53.242;10.438;2022-09-28T02:10:25;7.80;99.90
18506;DHT22;9382;53.242;10.438;2022-09-28T02:12:57;7.80;99.90
18506;DHT22;9382;53.242;10.438;2022-09-28T02:15:31;7.70;99.90
18506;DHT22;9382;53.242;10.438;2022-09-28T02:17:59;7.80;99.90
18506;DHT22;9382;53.242;10.438;2022-09-28T02:20:28;7.80;99.90
18506;DHT22;9382;53.242;10.438;2022-09-28T02:22:58;7.80;99.90
18506;DHT22;9382;53.242;10.438;2022-09-28T02:25:29;7.80;99.90
18506;DHT22;9382;53.242;10.438;2022-09-28T02:28:03;7.80;99.90
18506;DHT22;9382;53.242;10.438;2022-09-28T02:30:32;7.80;99.90
18506;DHT22;9382;53.242;10.438;2022-09-28T02:33:11;7.80;99.90
18506;DHT22;9382;53.242;10.438;2022-09-28T02:35:40;7.80;99.90
18506;DHT22;9382;53.242;10.438;2022-09-28T02:38:06;7.80;99.90
18506;DHT22;9382;53.242;10.438;2022-09-28T02:40:34;7.80;99.90
18506;DHT22;9382;53.242;10.438;2022-09-28T02:43:11;7.70;99.90
18506;DHT22;9382;53.242;10.438;2022-09-28T02:45:58;7.70;99.90
18506;DHT22;9382;53.242;10.438;2022-09-28T02:48:36;7.80;99.90
18506;DHT22;9382;53.242;10.438;2022-09-28T02:51:14;7.80;99.90
18506;DHT22;9382;53.242;10.438;2022-09-28T02:54:16;7.70;99.90
18506;DHT22;9382;53.242;10.438;2022-09-28T02:57:04;7.80;99.90
18506;DHT22;9382;53.242;10.438;2022-09-28T02:59:43;7.80;99.90
18506;DHT22;9382;53.242;10.438;2022-09-28T03:02:19;7.80;99.90
18506;DHT22;9382;53.242;10.438;2022-09-28T03:07:51;7.80;99.90
18506;DHT22;9382;53.242;10.438;2022-09-28T03:10:24;7.80;99.90
18506;DHT22;9382;53.242;10.438;2022-09-28T03:12:54;7.80;99.90
18506;DHT22;9382;53.242;10.438;2022-09-28T03:15:24;7.80;99.90
18506;DHT22;9382;53.242;10.438;2022-09-28T03:17:52;7.80;99.90
18506;DHT22;9382;53.242;10.438;2022-09-28T03:20:19;7.80;99.90
18506;DHT22;9382;53.242;10.438;2022-09-28T03:22:46;7.70;99.90
18506;DHT22;9382;53.242;10.438;2022-09-28T03:25:12;7.70;99.90
18506;DHT22;9382;53.242;10.438;2022-09-28T03:27:40;7.80;99.90
18506;DHT22;9382;53.242;10.438;2022-09-28T03:30:08;7.80;99.90
18506;DHT22;9382;53.242;10.438;2022-09-28T03:32:37;7.80;99.90
18506;DHT22;9382;53.242;10.438;2022-09-28T03:35:06;7.80;99.90
18506;DHT22;9382;53.242;10.438;2022-09-28T03:37:33;7.70;99.90
18506;DHT22;9382;53.242;10.438;2022-09-28T03:40:00;7.70;99.90
18506;DHT22;9382;53.242;10.438;2022-09-28T03:42:27;7.70;99.90
18506;DHT22;9382;53.242;10.438;2022-09-28T03:44:54;7.80;99.90
18506;DHT22;9382;53.242;10.438;2022-09-28T03:47:21;7.80;99.90
18506;DHT22;9382;53.242;10.438;2022-09-28T03:49:49;7.80;99.90
18506;DHT22;9382;53.242;10.438;2022-09-28T03:52:16;7.70;99.90
18506;DHT22;9382;53.242;10.438;2022-09-28T03:54:43;7.70;99.90
18506;DHT22;9382;53.242;10.438;2022-09-28T03:57:09;7.70;99.90
18506;DHT22;9382;53.242;10.438;2022-09-28T03:59:36;7.80;99.90
18506;DHT22;9382;53.242;10.438;2022-09-28T04:02:03;7.80;99.90
18506;DHT22;9382;53.242;10.438;2022-09-28T04:04:30;7.80;99.90
18506;DHT22;9382;53.242;10.438;2022-09-28T04:06:58;7.90;99.90
18506;DHT22;9382;53.242;10.438;2022-09-28T04:09:25;7.90;99.90
18506;DHT22;9382;53.242;10.438;2022-09-28T04:11:52;8.00;99.90
18506;DHT22;9382;53.242;10.438;2022-09-28T04:14:19;8.00;99.90
18506;DHT22;9382;53.242;10.438;2022-09-28T04:16:45;8.00;99.90
18506;DHT22;9382;53.242;10.438;2022-09-28T04:19:13;8.00;99.90
18506;DHT22;9382;53.242;10.438;2022-09-28T04:21:39;8.00;99.90
18506;DHT22;9382;53.242;10.438;2022-09-28T04:24:08;8.00;99.90
18506;DHT22;9382;53.242;10.438;2022-09-28T04:26:35;8.00;99.90
18506;DHT22;9382;53.242;10.438;2022-09-28T04:29:02;7.90;99.90
18506;DHT22;9382;53.242;10.438;2022-09-28T04:31:41;7.90;99.90
18506;DHT22;9382;53.242;10.438;2022-09-28T04:34:09;7.90;99.90
18506;DHT22;9382;53.242;10.438;2022-09-28T04:36:36;7.90;99.90
18506;DHT22;9382;53.242;10.438;2022-09-28T04:39:03;7.80;99.90
18506;DHT22;9382;53.242;10.438;2022-09-28T04:41:31;7.90;99.90
18506;DHT22;9382;53.242;10.438;2022-09-28T04:43:58;7.90;99.90
18506;DHT22;9382;53.242;10.438;2022-09-28T04:46:25;7.90;99.90
18506;DHT22;9382;53.242;10.438;2022-09-28T04:48:51;7.80;99.90
18506;DHT22;9382;53.242;10.438;2022-09-28T04:51:18;7.90;99.90
18506;DHT22;9382;53.242;10.438;2022-09-28T04:53:45;7.80;99.90
18506;DHT22;9382;53.242;10.438;2022-09-28T04:56:16;7.90;99.90
18506;DHT22;9382;53.242;10.438;2022-09-28T04:58:45;7.90;99.90
18506;DHT22;9382;53.242;10.438;2022-09-28T05:01:13;7.90;99.90
18506;DHT22;9382;53.242;10.438;2022-09-28T05:03:41;8.00;99.90
18506;DHT22;9382;53.242;10.438;2022-09-28T05:06:08;8.00;99.90
18506;DHT22;9382;53.242;10.438;2022-09-28T05:08:35;7.90;99.90
18506;DHT22;9382;53.242;10.438;2022-09-28T05:11:03;8.00;99.90
18506;DHT22;9382;53.242;10.438;2022-09-28T05:13:32;8.00;99.90
18506;DHT22;9382;53.242;10.438;2022-09-28T05:16:01;8.00;99.90
18506;DHT22;9382;53.242;10.438;2022-09-28T05:18:28;8.00;99.90
18506;DHT22;9382;53.242;10.438;2022-09-28T05:20:55;8.00;99.90
18506;DHT22;9382;53.242;10.438;2022-09-28T05:23:21;8.00;99.90
18506;DHT22;9382;53.242;10.438;2022-09-28T05:25:48;8.00;99.90
18506;DHT22;9382;53.242;10.438;2022-09-28T05:28:21;8.00;99.90
18506;DHT22;9382;53.242;10.438;2022-09-28T05:30:49;8.00;99.90
18506;DHT22;9382;53.242;10.438;2022-09-28T05:33:18;8.10;99.90
18506;DHT22;9382;53.242;10.438;2022-09-28T05:35:45;8.10;99.90
18506;DHT22;9382;53.242;10.438;2022-09-28T05:38:11;8.10;99.90
18506;DHT22;9382;53.242;10.438;2022-09-28T05:40:38;8.10;99.90
18506;DHT22;9382;53.242;10.438;2022-09-28T05:43:05;8.10;99.90
18506;DHT22;9382;53.242;10.438;2022-09-28T05:45:32;8.10;99.90
18506;DHT22;9382;53.242;10.438;2022-09-28T05:47:58;8.10;99.90
18506;DHT22;9382;53.242;10.438;2022-09-28T05:50:26;8.20;99.90
18506;DHT22;9382;53.242;10.438;2022-09-28T05:52:57;8.10;99.90
18506;DHT22;9382;53.242;10.438;2022-09-28T05:55:24;8.20;99.90
18506;DHT22;9382;53.242;10.438;2022-09-28T05:57:51;8.10;99.90
18506;DHT22;9382;53.242;10.438;2022-09-28T06:00:18;8.00;99.90
18506;DHT22;9382;53.242;10.438;2022-09-28T06:02:54;7.90;99.90
18506;DHT22;9382;53.242;10.438;2022-09-28T06:05:21;7.90;99.90
18506;DHT22;9382;53.242;10.438;2022-09-28T06:07:49;7.90;99.90
18506;DHT22;9382;53.242;10.438;2022-09-28T06:10:16;7.90;99.90
18506;DHT22;9382;53.242;10.438;2022-09-28T06:12:43;7.90;99.90
18506;DHT22;9382;53.242;10.438;2022-09-28T06:15:12;7.90;99.90
18506;DHT22;9382;53.242;10.438;2022-09-28T06:17:39;7.90;99.90
18506;DHT22;9382;53.242;10.438;2022-09-28T06:20:08;7.80;99.90
18506;DHT22;9382;53.242;10.438;2022-09-28T06:22:35;7.80;99.90
18506;DHT22;9382;53.242;10.438;2022-09-28T06:25:04;7.90;99.90
18506;DHT22;9382;53.242;10.438;2022-09-28T06:27:32;7.90;99.90
18506;DHT22;9382;53.242;10.438;2022-09-28T06:29:58;7.90;99.90
18506;DHT22;9382;53.242;10.438;2022-09-28T06:32:26;8.00;99.90
18506;DHT22;9382;53.242;10.438;2022-09-28T06:34:53;8.10;99.90
18506;DHT22;9382;53.242;10.438;2022-09-28T06:37:20;8.20;99.90
18506;DHT22;9382;53.242;10.438;2022-09-28T06:39:47;8.30;99.90
18506;DHT22;9382;53.242;10.438;2022-09-28T06:42:15;8.30;99.90
18506;DHT22;9382;53.242;10.438;2022-09-28T06:44:43;8.40;99.90
18506;DHT22;9382;53.242;10.438;2022-09-28T06:47:11;8.40;99.90
18506;DHT22;9382;53.242;10.438;2022-09-28T06:49:39;8.50;99.90
18506;DHT22;9382;53.242;10.438;2022-09-28T06:52:06;8.50;99.90
18506;DHT22;9382;53.242;10.438;2022-09-28T06:54:32;8.40;99.90
18506;DHT22;9382;53.242;10.438;2022-09-28T06:56:59;8.40;99.90
18506;DHT22;9382;53.242;10.438;2022-09-28T06:59:28;8.40;99.90
18506;DHT22;9382;53.242;10.438;2022-09-28T07:01:55;8.40;99.90
18506;DHT22;9382;53.242;10.438;2022-09-28T07:04:22;8.50;99.90
18506;DHT22;9382;53.242;10.438;2022-09-28T07:06:49;8.50;99.90
18506;DHT22;9382;53.242;10.438;2022-09-28T07:09:15;8.60;99.90
18506;DHT22;9382;53.242;10.438;2022-09-28T07:11:42;8.70;99.90
18506;DHT22;9382;53.242;10.438;2022-09-28T07:14:09;8.70;99.90
18506;DHT22;9382;53.242;10.438;2022-09-28T07:16:38;8.80;99.90
18506;DHT22;9382;53.242;10.438;2022-09-28T07:19:05;8.90;99.90
18506;DHT22;9382;53.242;10.438;2022-09-28T07:21:31;8.80;99.90
18506;DHT22;9382;53.242;10.438;2022-09-28T07:23:59;8.80;99.90
18506;DHT22;9382;53.242;10.438;2022-09-28T07:26:25;8.90;99.90
18506;DHT22;9382;53.242;10.438;2022-09-28T07:28:52;8.90;99.90
18506;DHT22;9382;53.242;10.438;2022-09-28T07:31:20;9.00;99.90
18506;DHT22;9382;53.242;10.438;2022-09-28T07:33:50;9.00;99.90
18506;DHT22;9382;53.242;10.438;2022-09-28T07:36:18;9.10;99.90
18506;DHT22;9382;53.242;10.438;2022-09-28T07:38:45;9.20;99.90
18506;DHT22;9382;53.242;10.438;2022-09-28T07:41:12;9.30;99.90
18506;DHT22;9382;53.242;10.438;2022-09-28T07:43:40;9.50;99.90
18506;DHT22;9382;53.242;10.438;2022-09-28T07:46:08;9.70;99.90
18506;DHT22;9382;53.242;10.438;2022-09-28T07:48:38;9.80;99.90
18506;DHT22;9382;53.242;10.438;2022-09-28T07:51:07;9.80;99.90
18506;DHT22;9382;53.242;10.438;2022-09-28T07:53:34;9.80;99.90
18506;DHT22;9382;53.242;10.438;2022-09-28T07:56:03;9.80;99.90
18506;DHT22;9382;53.242;10.438;2022-09-28T07:58:33;9.80;99.90
18506;DHT22;9382;53.242;10.438;2022-09-28T08:01:05;9.60;99.90
18506;DHT22;9382;53.242;10.438;2022-09-28T08:03:33;9.40;99.90
18506;DHT22;9382;53.242;10.438;2022-09-28T08:06:00;9.20;99.90
18506;DHT22;9382;53.242;10.438;2022-09-28T08:08:29;9.00;99.90
18506;DHT22;9382;53.242;10.438;2022-09-28T08:10:56;9.10;99.90
18506;DHT22;9382;53.242;10.438;2022-09-28T08:13:23;9.10;99.90
18506;DHT22;9382;53.242;10.438;2022-09-28T08:15:51;9.30;99.90
18506;DHT22;9382;53.242;10.438;2022-09-28T08:18:18;9.40;99.90
18506;DHT22;9382;53.242;10.438;2022-09-28T08:20:45;9.60;99.90
18506;DHT22;9382;53.242;10.438;2022-09-28T08:23:31;9.80;99.90
18506;DHT22;9382;53.242;10.438;2022-09-28T08:25:57;10.20;99.90
18506;DHT22;9382;53.242;10.438;2022-09-28T08:28:24;10.50;99.90
18506;DHT22;9382;53.242;10.438;2022-09-28T08:30:51;10.80;99.90
18506;DHT22;9382;53.242;10.438;2022-09-28T08:33:19;11.00;99.90
18506;DHT22;9382;53.242;10.438;2022-09-28T08:35:47;11.10;99.90
18506;DHT22;9382;53.242;10.438;2022-09-28T08:38:20;11.30;99.90
18506;DHT22;9382;53.242;10.438;2022-09-28T08:40:56;11.60;99.90
18506;DHT22;9382;53.242;10.438;2022-09-28T08:43:46;12.00;99.90
18506;DHT22;9382;53.242;10.438;2022-09-28T08:46:18;12.40;99.90
18506;DHT22;9382;53.242;10.438;2022-09-28T08:48:50;12.50;99.90
18506;DHT22;9382;53.242;10.438;2022-09-28T08:51:22;12.60;99.90
18506;DHT22;9382;53.242;10.438;2022-09-28T08:53:54;12.60;99.90
18506;DHT22;9382;53.242;10.438;2022-09-28T08:56:37;12.70;99.90
18506;DHT22;9382;53.242;10.438;2022-09-28T08:59:10;12.60;99.90
18506;DHT22;9382;53.242;10.438;2022-09-28T09:01:41;12.70;99.90
18506;DHT22;9382;53.242;10.438;2022-09-28T09:04:09;12.80;99.90
18506;DHT22;9382;53.242;10.438;2022-09-28T09:06:52;12.80;99.90
18506;DHT22;9382;53.242;10.438;2022-09-28T09:09:30;12.90;99.90
18506;DHT22;9382;53.242;10.438;2022-09-28T09:12:06;12.90;99.90
18506;DHT22;9382;53.242;10.438;2022-09-28T09:14:57;12.90;99.90
18506;DHT22;9382;53.242;10.438;2022-09-28T09:17:37;12.90;99.90
18506;DHT22;9382;53.242;10.438;2022-09-28T09:20:15;13.00;99.90
18506;DHT22;9382;53.242;10.438;2022-09-28T09:22:54;13.00;99.90
18506;DHT22;9382;53.242;10.438;2022-09-28T09:25:26;13.00;99.90
18506;DHT22;9382;53.242;10.438;2022-09-28T09:31:18;12.70;99.90
18506;DHT22;9382;53.242;10.438;2022-09-28T09:34:07;12.50;99.90
18506;DHT22;9382;53.242;10.438;2022-09-28T09:36:49;12.40;99.90
18506;DHT22;9382;53.242;10.438;2022-09-28T09:39:26;12.10;99.90
18506;DHT22;9382;53.242;10.438;2022-09-28T09:42:08;12.10;99.90
18506;DHT22;9382;53.242;10.438;2022-09-28T09:47:32;11.90;99.90
18506;DHT22;9382;53.242;10.438;2022-09-28T09:50:06;11.80;99.90
18506;DHT22;9382;53.242;10.438;2022-09-28T09:52:44;12.00;99.90
18506;DHT22;9382;53.242;10.438;2022-09-28T09:55:15;12.20;99.90
18506;DHT22;9382;53.242;10.438;2022-09-28T09:57:47;12.50;99.90
18506;DHT22;9382;53.242;10.438;2022-09-28T10:00:17;12.60;99.90
18506;DHT22;9382;53.242;10.438;2022-09-28T10:02:46;12.60;99.90
18506;DHT22;9382;53.242;10.438;2022-09-28T10:05:18;12.60;99.90
18506;DHT22;9382;53.242;10.438;2022-09-28T10:07:50;12.70;99.90
18506;DHT22;9382;53.242;10.438;2022-09-28T10:10:21;12.70;99.90
18506;DHT22;9382;53.242;10.438;2022-09-28T10:12:50;12.70;99.90
18506;DHT22;9382;53.242;10.438;2022-09-28T10:15:22;12.70;99.90
18506;DHT22;9382;53.242;10.438;2022-09-28T10:17:49;12.70;99.90
18506;DHT22;9382;53.242;10.438;2022-09-28T10:20:16;12.70;99.90
18506;DHT22;9382;53.242;10.438;2022-09-28T10:22:43;12.80;99.90
18506;DHT22;9382;53.242;10.438;2022-09-28T10:25:11;12.50;99.90
18506;DHT22;9382;53.242;10.438;2022-09-28T10:27:41;12.40;99.90
18506;DHT22;9382;53.242;10.438;2022-09-28T10:30:14;12.30;99.90
18506;DHT22;9382;53.242;10.438;2022-09-28T10:32:44;12.30;99.90
18506;DHT22;9382;53.242;10.438;2022-09-28T10:35:19;12.30;99.90
18506;DHT22;9382;53.242;10.438;2022-09-28T10:37:52;12.20;99.90
18506;DHT22;9382;53.242;10.438;2022-09-28T10:40:38;12.20;99.90
18506;DHT22;9382;53.242;10.438;2022-09-28T10:43:17;12.20;99.90
18506;DHT22;9382;53.242;10.438;2022-09-28T10:45:45;12.30;99.90
18506;DHT22;9382;53.242;10.438;2022-09-28T10:48:18;12.30;99.90
18506;DHT22;9382;53.242;10.438;2022-09-28T10:50:57;12.20;99.90
18506;DHT22;9382;53.242;10.438;2022-09-28T10:53:24;12.30;99.90
18506;DHT22;9382;53.242;10.438;2022-09-28T10:56:00;12.40;99.90
18506;DHT22;9382;53.242;10.438;2022-09-28T10:58:34;12.40;99.90
18506;DHT22;9382;53.242;10.438;2022-09-28T11:01:06;12.30;99.90
18506;DHT22;9382;53.242;10.438;2022-09-28T11:03:47;12.30;99.90
18506;DHT22;9382;53.242;10.438;2022-09-28T11:06:15;12.50;99.90
18506;DHT22;9382;53.242;10.438;2022-09-28T11:08:49;12.80;99.90
18506;DHT22;9382;53.242;10.438;2022-09-28T11:11:17;13.20;99.90
18506;DHT22;9382;53.242;10.438;2022-09-28T11:13:46;13.50;99.90
18506;DHT22;9382;53.242;10.438;2022-09-28T11:16:25;13.90;99.90
18506;DHT22;9382;53.242;10.438;2022-09-28T11:18:55;14.60;99.90
18506;DHT22;9382;53.242;10.438;2022-09-28T11:21:24;15.00;99.90
18506;DHT22;9382;53.242;10.438;2022-09-28T11:23:59;15.20;99.90
18506;DHT22;9382;53.242;10.438;2022-09-28T11:26:34;15.70;99.90
18506;DHT22;9382;53.242;10.438;2022-09-28T11:29:04;15.80;99.90
18506;DHT22;9382;53.242;10.438;2022-09-28T11:31:32;15.90;99.90
18506;DHT22;9382;53.242;10.438;2022-09-28T11:34:05;15.50;99.90
18506;DHT22;9382;53.242;10.438;2022-09-28T11:36:48;15.30;99.90
18506;DHT22;9382;53.242;10.438;2022-09-28T11:39:24;15.30;99.90
18506;DHT22;9382;53.242;10.438;2022-09-28T11:42:00;15.10;99.90
18506;DHT22;9382;53.242;10.438;2022-09-28T11:44:39;14.80;99.90
18506;DHT22;9382;53.242;10.438;2022-09-28T11:47:44;14.60;99.90
18506;DHT22;9382;53.242;10.438;2022-09-28T11:50:20;14.70;99.90
18506;DHT22;9382;53.242;10.438;2022-09-28T11:52:53;14.70;99.90
18506;DHT22;9382;53.242;10.438;2022-09-28T11:55:26;14.60;99.90
18506;DHT22;9382;53.242;10.438;2022-09-28T11:57:59;14.40;99.90
18506;DHT22;9382;53.242;10.438;2022-09-28T12:00:27;14.10;99.90
18506;DHT22;9382;53.242;10.438;2022-09-28T12:02:59;13.90;99.90
18506;DHT22;9382;53.242;10.438;2022-09-28T12:05:30;14.10;99.90
18506;DHT22;9382;53.242;10.438;2022-09-28T12:08:03;14.30;99.90
18506;DHT22;9382;53.242;10.438;2022-09-28T12:10:36;14.60;99.90
18506;DHT22;9382;53.242;10.438;2022-09-28T12:13:08;15.00;99.90
18506;DHT22;9382;53.242;10.438;2022-09-28T12:15:41;15.10;99.90
18506;DHT22;9382;53.242;10.438;2022-09-28T12:18:14;15.00;99.90
18506;DHT22;9382;53.242;10.438;2022-09-28T12:20:46;14.80;99.90
18506;DHT22;9382;53.242;10.438;2022-09-28T12:23:17;14.50;99.90
18506;DHT22;9382;53.242;10.438;2022-09-28T12:25:50;14.40;99.90
18506;DHT22;9382;53.242;10.438;2022-09-28T12:28:25;14.40;99.90
18506;DHT22;9382;53.242;10.438;2022-09-28T12:30:56;14.30;99.90
18506;DHT22;9382;53.242;10.438;2022-09-28T12:33:25;14.40;99.90
18506;DHT22;9382;53.242;10.438;2022-09-28T12:36:03;14.30;99.90
18506;DHT22;9382;53.242;10.438;2022-09-28T12:38:50;14.10;99.90
18506;DHT22;9382;53.242;10.438;2022-09-28T12:41:26;13.90;99.90
18506;DHT22;9382;53.242;10.438;2022-09-28T12:44:11;13.70;99.90
18506;DHT22;9382;53.242;10.438;2022-09-28T12:46:51;13.60;99.90
18506;DHT22;9382;53.242;10.438;2022-09-28T12:49:28;13.50;99.90
18506;DHT22;9382;53.242;10.438;2022-09-28T12:52:07;13.50;99.90
18506;DHT22;9382;53.242;10.438;2022-09-28T12:55:00;13.50;99.90
18506;DHT22;9382;53.242;10.438;2022-09-28T12:57:39;13.40;99.90
18506;DHT22;9382;53.242;10.438;2022-09-28T13:00:10;13.30;99.90
18506;DHT22;9382;53.242;10.438;2022-09-28T13:02:51;13.30;99.90
18506;DHT22;9382;53.242;10.438;2022-09-28T13:08:36;13.00;99.90
18506;DHT22;9382;53.242;10.438;2022-09-28T13:11:14;13.10;99.90
18506;DHT22;9382;53.242;10.438;2022-09-28T13:13:50;13.30;99.90
18506;DHT22;9382;53.242;10.438;2022-09-28T13:16:24;13.20;99.90
18506;DHT22;9382;53.242;10.438;2022-09-28T13:18:59;13.30;99.90
18506;DHT22;9382;53.242;10.438;2022-09-28T13:21:35;13.50;99.90
18506;DHT22;9382;53.242;10.438;2022-09-28T13:24:08;13.90;99.90
18506;DHT22;9382;53.242;10.438;2022-09-28T13:26:42;14.20;99.90
18506;DHT22;9382;53.242;10.438;2022-09-28T13:29:11;14.60;99.90
18506;DHT22;9382;53.242;10.438;2022-09-28T13:31:44;15.20;99.90
18506;DHT22;9382;53.242;10.438;2022-09-28T13:34:16;16.40;99.90
18506;DHT22;9382;53.242;10.438;2022-09-28T13:37:07;17.50;99.90
18506;DHT22;9382;53.242;10.438;2022-09-28T13:39:46;18.70;99.90
18506;DHT22;9382;53.242;10.438;2022-09-28T13:45:37;21.60;99.90
18506;DHT22;9382;53.242;10.438;2022-09-28T13:48:13;23.40;99.90
18506;DHT22;9382;53.242;10.438;2022-09-28T13:51:03;25.20;99.90
18506;DHT22;9382;53.242;10.438;2022-09-28T13:53:45;25.60;99.90
18506;DHT22;9382;53.242;10.438;2022-09-28T13:56:26;26.50;99.90
18506;DHT22;9382;53.242;10.438;2022-09-28T13:58:58;27.50;99.90
18506;DHT22;9382;53.242;10.438;2022-09-28T14:01:30;28.00;91.00
18506;DHT22;9382;53.242;10.438;2022-09-28T14:04:20;28.50;93.30
18506;DHT22;9382;53.242;10.438;2022-09-28T14:06:54;28.50;91.60
18506;DHT22;9382;53.242;10.438;2022-09-28T14:09:43;28.20;92.00
18506;DHT22;9382;53.242;10.438;2022-09-28T14:12:44;27.60;91.50
18506;DHT22;9382;53.242;10.438;2022-09-28T14:15:39;27.20;95.50
18506;DHT22;9382;53.242;10.438;2022-09-28T14:18:21;27.00;95.60
18506;DHT22;9382;53.242;10.438;2022-09-28T14:21:11;27.40;90.20
18506;DHT22;9382;53.242;10.438;2022-09-28T14:23:56;27.70;93.50
18506;DHT22;9382;53.242;10.438;2022-09-28T14:27:00;27.90;93.50
18506;DHT22;9382;53.242;10.438;2022-09-28T14:29:33;28.40;92.00
18506;DHT22;9382;53.242;10.438;2022-09-28T14:32:04;26.80;88.50
18506;DHT22;9382;53.242;10.438;2022-09-28T14:34:53;25.00;92.20
18506;DHT22;9382;53.242;10.438;2022-09-28T14:37:24;24.10;95.00
18506;DHT22;9382;53.242;10.438;2022-09-28T14:40:16;23.30;95.30
18506;DHT22;9382;53.242;10.438;2022-09-28T14:43:34;22.20;97.40
18506;DHT22;9382;53.242;10.438;2022-09-28T14:46:29;21.60;99.90
18506;DHT22;9382;53.242;10.438;2022-09-28T14:48:57;21.60;99.90
18506;DHT22;9382;53.242;10.438;2022-09-28T14:54:39;21.40;99.90
18506;DHT22;9382;53.242;10.438;2022-09-28T14:57:15;21.50;99.90
18506;DHT22;9382;53.242;10.438;2022-09-28T14:59:43;21.70;99.90
18506;DHT22;9382;53.242;10.438;2022-09-28T15:02:24;21.60;99.90
18506;DHT22;9382;53.242;10.438;2022-09-28T15:04:53;21.60;99.90
18506;DHT22;9382;53.242;10.438;2022-09-28T15:07:25;21.80;99.90
18506;DHT22;9382;53.242;10.438;2022-09-28T15:09:55;21.80;99.90
18506;DHT22;9382;53.242;10.438;2022-09-28T15:12:25;21.90;99.90
18506;DHT22;9382;53.242;10.438;2022-09-28T15:14:55;22.30;99.90
18506;DHT22;9382;53.242;10.438;2022-09-28T15:17:26;23.20;99.90
18506;DHT22;9382;53.242;10.438;2022-09-28T15:20:10;23.50;99.10
18506;DHT22;9382;53.242;10.438;2022-09-28T15:22:44;23.80;99.80
18506;DHT22;9382;53.242;10.438;2022-09-28T15:25:12;23.80;99.80
18506;DHT22;9382;53.242;10.438;2022-09-28T15:27:39;23.70;99.90
18506;DHT22;9382;53.242;10.438;2022-09-28T15:30:22;23.10;99.90
18506;DHT22;9382;53.242;10.438;2022-09-28T15:32:51;21.80;99.90
18506;DHT22;9382;53.242;10.438;2022-09-28T15:35:23;20.80;99.90
18506;DHT22;9382;53.242;10.438;2022-09-28T15:37:50;20.00;99.90
18506;DHT22;9382;53.242;10.438;2022-09-28T15:40:24;19.70;99.90
18506;DHT22;9382;53.242;10.438;2022-09-28T15:42:55;19.10;99.90
18506;DHT22;9382;53.242;10.438;2022-09-28T15:45:26;18.00;99.90
18506;DHT22;9382;53.242;10.438;2022-09-28T15:48:17;17.00;99.90
18506;DHT22;9382;53.242;10.438;2022-09-28T15:50:57;16.10;99.90
18506;DHT22;9382;53.242;10.438;2022-09-28T15:53:25;15.40;99.90
18506;DHT22;9382;53.242;10.438;2022-09-28T15:55:59;15.00;99.90
18506;DHT22;9382;53.242;10.438;2022-09-28T15:58:30;15.60;99.90
18506;DHT22;9382;53.242;10.438;2022-09-28T16:01:26;17.20;99.90
18506;DHT22;9382;53.242;10.438;2022-09-28T16:04:34;19.20;99.90
18506;DHT22;9382;53.242;10.438;2022-09-28T16:07:22;20.60;99.90
18506;DHT22;9382;53.242;10.438;2022-09-28T16:09:54;21.50;99.90
18506;DHT22;9382;53.242;10.438;2022-09-28T16:12:21;21.50;99.90
18506;DHT22;9382;53.242;10.438;2022-09-28T16:14:50;20.40;99.90
18506;DHT22;9382;53.242;10.438;2022-09-28T16:17:24;19.00;99.90
18506;DHT22;9382;53.242;10.438;2022-09-28T16:20:00;17.70;99.90
18506;DHT22;9382;53.242;10.438;2022-09-28T16:22:28;16.60;99.90
18506;DHT22;9382;53.242;10.438;2022-09-28T16:24:58;15.70;99.90
18506;DHT22;9382;53.242;10.438;2022-09-28T16:27:27;15.00;99.90
18506;DHT22;9382;53.242;10.438;2022-09-28T16:30:12;14.40;99.90
18506;DHT22;9382;53.242;10.438;2022-09-28T16:32:47;14.00;99.90
18506;DHT22;9382;53.242;10.438;2022-09-28T16:35:28;13.70;99.90